createdAt,value
2023-03-23T15:58:05.945Z,6.50
2023-03-23T16:00:33.116Z,7.05
2023-03-23T16:03:02.540Z,6.32
2023-03-23T16:05:29.602Z,6.63
2023-03-23T16:07:56.657Z,6.45
2023-03-23T16:10:25.970Z,6.03
2023-03-23T16:12:53.106Z,6.07
2023-03-23T16:15:21.560Z,6.53
2023-03-23T16:17:49.220Z,6.40
2023-03-23T16:20:22.407Z,6.75
2023-03-23T16:22:51.117Z,6.15
2023-03-23T16:25:19.034Z,6.80
2023-03-23T16:27:51.731Z,6.65
2023-03-23T16:30:23.210Z,6.10
2023-03-23T16:32:50.562Z,6.40
2023-03-23T16:35:19.465Z,6.38
2023-03-23T16:38:07.671Z,5.93
2023-03-23T16:40:39.680Z,5.82
2023-03-23T16:43:08.469Z,8.23
2023-03-23T16:45:37.740Z,7.50
2023-03-23T16:48:05.439Z,6.38
2023-03-23T16:50:32.873Z,5.72
2023-03-23T16:53:00.000Z,6.15
2023-03-23T16:55:27.990Z,5.55
2023-03-23T16:58:05.281Z,5.60
2023-03-23T17:00:40.868Z,5.43
2023-03-23T17:03:08.474Z,5.72
2023-03-23T17:05:37.211Z,5.60
2023-03-23T17:08:04.643Z,5.80
2023-03-23T17:10:31.928Z,5.75
2023-03-23T17:12:58.887Z,6.57
2023-03-23T17:15:26.165Z,6.50
2023-03-23T17:17:55.029Z,6.25
2023-03-23T17:20:22.629Z,6.68
2023-03-23T17:22:49.779Z,6.68
2023-03-23T17:25:16.805Z,6.70
2023-03-23T17:27:43.904Z,7.22
2023-03-23T17:30:11.741Z,7.18
2023-03-23T17:32:40.117Z,7.32
2023-03-23T17:35:07.570Z,6.70
2023-03-23T17:37:36.206Z,6.97
2023-03-23T17:40:03.957Z,7.45
2023-03-23T17:42:31.168Z,7.70
2023-03-23T17:44:58.731Z,7.78
2023-03-23T17:47:25.721Z,7.28
2023-03-23T17:49:52.641Z,8.30
2023-03-23T17:52:19.481Z,7.15
2023-03-23T17:54:46.405Z,7.20
2023-03-23T17:57:13.263Z,7.63
2023-03-23T17:59:40.454Z,7.85
2023-03-23T18:02:08.601Z,8.63
2023-03-23T18:04:35.541Z,7.75
2023-03-23T18:07:02.462Z,8.20
2023-03-23T18:09:29.769Z,7.95
2023-03-23T18:11:57.260Z,7.80
2023-03-23T18:14:24.188Z,7.88
2023-03-23T18:16:51.201Z,7.88
2023-03-23T18:19:18.172Z,8.02
2023-03-23T18:21:46.102Z,8.25
2023-03-23T18:24:13.625Z,8.35
2023-03-23T18:26:41.240Z,8.38
2023-03-23T18:29:08.253Z,8.30
2023-03-23T18:31:39.976Z,8.60
2023-03-23T18:34:07.413Z,8.73
2023-03-23T18:36:34.475Z,8.95
2023-03-23T18:39:01.610Z,9.02
2023-03-23T18:41:28.538Z,9.10
2023-03-23T18:43:57.561Z,8.98
2023-03-23T18:46:25.128Z,8.93
2023-03-23T18:48:52.038Z,9.50
2023-03-23T18:51:19.040Z,9.80
2023-03-23T18:53:46.030Z,9.32
2023-03-23T18:56:16.156Z,10.18
2023-03-23T18:58:44.474Z,10.63
2023-03-23T19:01:17.278Z,10.40
2023-03-23T19:03:45.731Z,10.00
2023-03-23T19:06:20.148Z,10.23
2023-03-23T19:08:48.311Z,9.85
2023-03-23T19:11:15.745Z,9.15
2023-03-23T19:13:53.871Z,9.18
2023-03-23T19:16:28.496Z,9.10
2023-03-23T19:18:55.376Z,8.50
2023-03-23T19:21:25.433Z,8.27
2023-03-23T19:23:54.185Z,8.75
2023-03-23T19:26:29.028Z,8.55
2023-03-23T19:31:26.031Z,12.63
2023-03-23T19:33:53.545Z,8.02
2023-03-23T19:36:22.560Z,7.80
2023-03-23T19:38:50.733Z,7.63
2023-03-23T19:41:19.270Z,6.88
2023-03-23T19:43:46.668Z,6.53
2023-03-23T19:46:14.618Z,6.47
2023-03-23T19:48:42.217Z,6.07
2023-03-23T19:51:11.549Z,5.43
2023-03-23T19:53:39.627Z,5.63
2023-03-23T19:56:14.627Z,5.68
2023-03-23T19:58:42.012Z,5.95
2023-03-23T20:01:09.238Z,5.00
2023-03-23T20:03:36.948Z,5.32
2023-03-23T20:06:10.957Z,4.35
2023-03-23T20:08:43.350Z,3.80
2023-03-23T20:11:17.209Z,4.38
2023-03-23T20:13:45.957Z,4.40
2023-03-23T20:16:12.992Z,4.47
2023-03-23T20:18:41.124Z,3.78
2023-03-23T20:21:30.653Z,4.00
2023-03-23T20:23:58.796Z,4.10
2023-03-23T20:26:32.247Z,3.67
2023-03-23T20:29:00.120Z,3.70
2023-03-23T20:31:31.193Z,4.00
2023-03-23T20:34:09.018Z,3.58
2023-03-23T20:36:40.420Z,3.63
2023-03-23T20:39:10.832Z,3.60
2023-03-23T20:41:39.013Z,3.47
2023-03-23T20:44:08.842Z,3.60
2023-03-23T20:46:35.883Z,3.40
2023-03-23T20:49:06.039Z,3.53
2023-03-23T20:51:33.637Z,3.80
2023-03-23T20:54:02.134Z,4.10
2023-03-23T20:56:29.124Z,3.88
2023-03-23T20:58:56.295Z,3.97
2023-03-23T21:01:23.315Z,4.32
2023-03-23T21:03:52.483Z,4.30
2023-03-23T21:06:20.485Z,3.90
2023-03-23T21:08:47.860Z,3.90
2023-03-23T21:11:19.131Z,4.25
2023-03-23T21:13:46.292Z,4.10
2023-03-23T21:16:13.362Z,3.65
2023-03-23T21:18:41.892Z,3.95
2023-03-23T21:21:11.230Z,4.10
2023-03-23T21:23:47.197Z,3.90
2023-03-23T21:26:20.043Z,4.20
2023-03-23T21:28:49.144Z,4.70
2023-03-23T21:31:17.174Z,3.92
2023-03-23T21:33:45.011Z,4.35
2023-03-23T21:36:12.004Z,4.60
2023-03-23T21:38:39.901Z,5.07
2023-03-23T21:41:12.511Z,4.32
2023-03-23T21:43:40.831Z,4.50
